createdAt,value
2022-10-04T00:05:52.538Z,100.00
2022-10-04T00:15:58.725Z,100.00
2022-10-04T00:26:07.888Z,100.00
2022-10-04T00:36:24.776Z,100.00
2022-10-04T00:46:30.455Z,100.00
2022-10-04T00:56:52.131Z,100.00
2022-10-04T01:06:54.582Z,100.00
2022-10-04T01:16:57.457Z,100.00
2022-10-04T01:27:01.005Z,100.00
2022-10-04T01:37:02.833Z,100.00
2022-10-04T01:47:14.221Z,100.00
2022-10-04T01:57:26.901Z,100.00
2022-10-04T02:07:32.850Z,100.00
2022-10-04T02:17:43.697Z,100.00
2022-10-04T02:27:46.800Z,100.00
2022-10-04T02:37:55.329Z,100.00
2022-10-04T02:48:19.537Z,100.00
2022-10-04T02:58:25.581Z,100.00
2022-10-04T03:08:30.186Z,100.00
2022-10-04T03:18:33.018Z,100.00
2022-10-04T03:28:37.283Z,100.00
2022-10-04T03:38:40.293Z,100.00
2022-10-04T03:48:46.882Z,100.00
2022-10-04T03:58:50.845Z,100.00
2022-10-04T04:09:39.574Z,100.00
2022-10-04T04:19:42.498Z,100.00
2022-10-04T04:29:53.547Z,100.00
2022-10-04T04:39:56.012Z,100.00
2022-10-04T04:50:04.339Z,100.00
2022-10-04T05:00:06.730Z,100.00
2022-10-04T05:10:30.589Z,100.00
2022-10-04T05:20:34.875Z,100.00
2022-10-04T05:30:50.430Z,100.00
2022-10-04T05:41:01.360Z,100.00
2022-10-04T05:51:23.191Z,100.00
2022-10-04T06:01:47.312Z,100.00
2022-10-04T06:11:51.949Z,100.00
2022-10-04T06:22:15.607Z,100.00
2022-10-04T06:32:26.686Z,100.00
2022-10-04T06:42:48.471Z,100.00
2022-10-04T06:53:38.517Z,100.00
2022-10-04T07:04:01.041Z,100.00
2022-10-04T07:14:06.226Z,100.00
2022-10-04T07:24:18.379Z,100.00
2022-10-04T07:34:27.229Z,100.00
2022-10-04T07:44:35.342Z,100.00
2022-10-04T07:54:59.161Z,100.00
2022-10-04T08:05:13.345Z,100.00
2022-10-04T08:15:24.979Z,97.93
2022-10-04T08:25:34.232Z,97.19
2022-10-04T08:35:40.380Z,93.32
2022-10-04T08:46:00.917Z,93.86
2022-10-04T08:56:24.352Z,92.74
2022-10-04T09:06:58.805Z,79.56
2022-10-04T09:17:22.887Z,79.61
2022-10-04T09:27:54.713Z,82.71
2022-10-04T09:38:23.543Z,74.73
2022-10-04T09:48:43.545Z,72.69
2022-10-04T09:59:18.696Z,72.68
2022-10-04T10:10:04.900Z,73.08
2022-10-04T10:21:05.340Z,73.39
2022-10-04T10:31:54.569Z,63.84
2022-10-04T10:42:17.923Z,56.03
2022-10-04T10:52:46.864Z,46.73
2022-10-04T11:03:12.188Z,42.20
2022-10-04T11:13:21.471Z,40.60
2022-10-04T11:23:49.256Z,44.52
2022-10-04T11:34:18.533Z,51.09
2022-10-04T11:44:41.260Z,51.77
2022-10-04T11:55:01.796Z,48.90
2022-10-04T12:05:23.789Z,48.46
2022-10-04T12:15:41.126Z,30.86
2022-10-04T12:25:48.709Z,30.22
2022-10-04T12:36:25.201Z,34.66
2022-10-04T12:46:53.476Z,35.72
2022-10-04T12:57:35.768Z,44.94
2022-10-04T13:07:43.558Z,40.09
2022-10-04T13:18:33.177Z,25.88
2022-10-04T13:28:49.327Z,21.35
2022-10-04T13:39:07.566Z,20.29
2022-10-04T13:49:37.739Z,21.87
2022-10-04T13:59:54.367Z,22.60
2022-10-04T14:10:11.403Z,23.95
2022-10-04T14:20:31.348Z,24.93
2022-10-04T14:31:01.967Z,23.01
2022-10-04T14:41:35.512Z,25.59
2022-10-04T14:51:40.068Z,35.02
2022-10-04T15:02:01.605Z,45.88
2022-10-04T15:12:46.006Z,49.14
2022-10-04T15:22:55.998Z,55.18
2022-10-04T15:33:34.890Z,55.66
2022-10-04T15:43:45.080Z,60.88
2022-10-04T15:54:12.711Z,64.34
2022-10-04T16:04:18.248Z,71.65
2022-10-04T16:14:26.219Z,78.85
2022-10-04T16:24:52.434Z,86.10
2022-10-04T16:35:04.423Z,92.53
2022-10-04T16:45:05.949Z,93.98
2022-10-04T16:55:23.487Z,97.38
2022-10-04T17:05:44.538Z,100.00
2022-10-04T17:16:33.926Z,100.00
2022-10-04T17:26:48.632Z,100.00
2022-10-04T17:36:56.377Z,100.00
2022-10-04T17:47:14.317Z,100.00
2022-10-04T17:57:26.235Z,100.00
2022-10-04T18:07:43.860Z,100.00
2022-10-04T18:17:49.380Z,100.00
2022-10-04T18:28:14.757Z,100.00
2022-10-04T18:38:28.724Z,100.00
2022-10-04T18:48:40.760Z,100.00
2022-10-04T18:59:21.063Z,100.00
2022-10-04T19:09:57.218Z,100.00
2022-10-04T19:20:18.953Z,100.00
2022-10-04T19:30:54.282Z,100.00
2022-10-04T19:41:22.896Z,100.00
2022-10-04T19:51:37.176Z,100.00
2022-10-04T20:01:41.241Z,100.00
2022-10-04T20:11:49.784Z,100.00
2022-10-04T20:21:54.570Z,100.00
2022-10-04T20:31:56.303Z,100.00
2022-10-04T20:42:20.219Z,100.00
2022-10-04T20:52:33.273Z,100.00
2022-10-04T21:02:37.118Z,100.00
2022-10-04T21:12:40.615Z,100.00
2022-10-04T21:22:42.728Z,100.00
2022-10-04T21:32:45.892Z,100.00
2022-10-04T21:42:47.556Z,100.00
2022-10-04T21:52:49.178Z,100.00
2022-10-04T22:02:50.771Z,100.00
2022-10-04T22:12:56.824Z,100.00
2022-10-04T22:22:59.246Z,100.00
2022-10-04T22:33:40.789Z,100.00
2022-10-04T22:43:43.110Z,100.00
2022-10-04T22:53:46.885Z,100.00
2022-10-04T23:03:49.296Z,100.00
2022-10-04T23:13:53.656Z,100.00
2022-10-04T23:23:55.410Z,100.00
2022-10-04T23:33:58.078Z,100.00
2022-10-04T23:44:03.483Z,100.00
2022-10-04T23:54:06.290Z,100.00
